Time;durP1;ratioP1;P1;durP2;ratioP2;P2;SDS_P1;SDS_P2;PMS_P1;PMS_P2;Temp;Humidity;BMP_temperature;BMP_pressure;BME280_temperature;BME280_humidity;BME280_pressure;Samples;Min_cycle;Max_cycle;Signal;HPM_P1;HPM_P2
2022/05/04 00:00:42;;;;;;;;;;;;;;;16.60;56.38;100742.47;5036286;28;20301;-82
2022/05/04 00:03:26;;;;;;;;;;;;;;;16.54;56.20;100738.38;5055496;28;19913;-85
2022/05/04 00:06:11;;;;;;;;;;;;;;;16.55;56.11;100737.22;5037404;28;19913;-84
2022/05/04 00:08:55;;;;;;;;;;;;;;;16.63;55.95;100741.75;5060652;28;19913;-81
2022/05/04 00:11:41;;;;;;;;;;;;;;;16.56;55.81;100738.78;5049545;28;19912;-81
2022/05/04 00:14:26;;;;;;;;;;;;;;;16.54;56.37;100743.84;5037163;28;20305;-82
2022/05/04 00:17:10;;;;;;;;;;;;;;;16.58;56.43;100741.19;5028967;28;20381;-83
2022/05/04 00:19:54;;;;;;;;;;;;;;;16.63;56.24;100740.97;5030819;28;19913;-81
2022/05/04 00:22:39;;;;;;;;;;;;;;;16.65;56.28;100741.41;5035322;28;19917;-81
2022/05/04 00:25:23;;;;;;;;;;;;;;;16.57;56.43;100745.09;5052069;28;19913;-82
2022/05/04 00:28:07;;;;;;;;;;;;;;;16.63;56.22;100744.50;5068540;28;19913;-82
2022/05/04 00:30:52;;;;;;;;;;;;;;;16.63;56.13;100740.97;5047360;28;20378;-83
2022/05/04 00:33:36;;;;;;;;;;;;;;;16.56;56.07;100727.81;5045264;28;19913;-82
2022/05/04 00:36:22;;;;;;;;;;;;;;;16.52;56.80;100728.88;5034439;28;19913;-81
2022/05/04 00:39:06;;;;;;;;;;;;;;;16.51;56.78;100732.78;5019926;28;19917;-83
2022/05/04 00:41:50;;;;;;;;;;;;;;;16.55;56.68;100728.19;5071045;28;19917;-81
2022/05/04 00:44:35;;;;;;;;;;;;;;;16.54;56.63;100732.88;5055274;28;19912;-85
2022/05/04 00:47:20;;;;;;;;;;;;;;;16.45;57.34;100725.97;5052918;28;19913;-84
2022/05/04 00:50:06;;;;;;;;;;;;;;;16.50;57.51;100736.69;5040774;28;19912;-84
2022/05/04 00:52:50;;;;;;;;;;;;;;;16.40;57.50;100739.97;5035030;28;19913;-84
2022/05/04 00:55:35;;;;;;;;;;;;;;;16.35;57.92;100737.47;5035350;28;19912;-84
2022/05/04 01:01:28;;;;;;;;;;;;;;;16.39;57.84;100739.16;5034349;28;19917;-85
2022/05/04 01:04:13;;;;;;;;;;;;;;;16.32;57.65;100744.47;5032317;28;19913;-83
2022/05/04 01:06:58;;;;;;;;;;;;;;;16.38;57.50;100745.00;5047685;28;19913;-80
2022/05/04 01:09:43;;;;;;;;;;;;;;;16.27;57.92;100740.03;5042907;28;19913;-83
2022/05/04 01:12:28;;;;;;;;;;;;;;;16.35;57.77;100748.47;5032118;28;19913;-82
2022/05/04 01:15:12;;;;;;;;;;;;;;;16.35;57.99;100745.72;5028011;28;19913;-83
2022/05/04 01:17:56;;;;;;;;;;;;;;;16.43;57.67;100742.78;5048750;28;19913;-84
2022/05/04 01:20:41;;;;;;;;;;;;;;;16.42;57.65;100740.38;5066968;28;19912;-82
2022/05/04 01:23:27;;;;;;;;;;;;;;;16.43;57.20;100747.47;5064835;28;20615;-84
2022/05/04 01:26:12;;;;;;;;;;;;;;;16.32;57.80;100747.22;5063135;28;20293;-85
2022/05/04 01:28:56;;;;;;;;;;;;;;;16.24;57.85;100756.41;5070685;28;19921;-84
2022/05/04 01:31:40;;;;;;;;;;;;;;;16.17;57.43;100748.78;5045655;28;19913;-86
2022/05/04 01:34:28;;;;;;;;;;;;;;;16.11;57.46;100755.66;5055164;28;19913;-85
2022/05/04 01:37:12;;;;;;;;;;;;;;;16.03;57.66;100742.94;5058738;28;19920;-84
2022/05/04 01:39:57;;;;;;;;;;;;;;;16.06;57.44;100746.91;5054754;28;19916;-82
2022/05/04 01:42:41;;;;;;;;;;;;;;;15.94;57.71;100753.25;5040192;28;20378;-84
2022/05/04 01:45:25;;;;;;;;;;;;;;;15.98;58.20;100758.84;5048496;28;19912;-84
2022/05/04 01:48:10;;;;;;;;;;;;;;;15.94;58.53;100756.00;5035674;28;20309;-83
2022/05/04 01:50:55;;;;;;;;;;;;;;;15.92;58.42;100760.22;5038336;28;20302;-79
2022/05/04 01:53:40;;;;;;;;;;;;;;;15.92;58.65;100755.53;5033807;28;19912;-82
2022/05/04 01:56:24;;;;;;;;;;;;;;;15.91;58.43;100748.47;5049572;28;19913;-83
2022/05/04 01:59:09;;;;;;;;;;;;;;;15.92;58.30;100750.06;5050697;28;19913;-83
2022/05/04 02:01:53;;;;;;;;;;;;;;;15.94;57.88;100758.75;5036274;28;19917;-85
2022/05/04 02:04:37;;;;;;;;;;;;;;;15.92;57.58;100755.53;5057398;28;20566;-84
2022/05/04 02:07:21;;;;;;;;;;;;;;;15.83;58.11;100757.66;5056827;28;19913;-82
2022/05/04 02:10:06;;;;;;;;;;;;;;;15.73;58.28;100758.16;5062644;28;19913;-84
2022/05/04 02:12:51;;;;;;;;;;;;;;;15.73;58.35;100755.41;5073477;28;19912;-84
2022/05/04 02:15:35;;;;;;;;;;;;;;;15.68;58.69;100769.38;5033688;28;20389;-83
2022/05/04 02:18:19;;;;;;;;;;;;;;;15.70;58.55;100756.09;5033384;28;19913;-84
2022/05/04 02:21:04;;;;;;;;;;;;;;;15.69;58.68;100762.75;5051515;28;19913;-83
2022/05/04 02:23:48;;;;;;;;;;;;;;;15.61;58.85;100766.41;5061640;28;19913;-84
2022/05/04 02:26:32;;;;;;;;;;;;;;;15.65;59.23;100768.09;5053899;28;19913;-83
2022/05/04 02:29:17;;;;;;;;;;;;;;;15.70;59.15;100762.38;5069194;28;19916;-83
2022/05/04 02:32:01;;;;;;;;;;;;;;;15.71;59.16;100754.94;5043662;28;19913;-84
2022/05/04 02:38:02;;;;;;;;;;;;;;;15.58;58.74;100756.94;5040088;28;19913;-80
2022/05/04 02:40:47;;;;;;;;;;;;;;;15.65;58.16;100759.88;5035908;28;19916;-83
2022/05/04 02:43:32;;;;;;;;;;;;;;;15.65;58.40;100762.63;5064306;28;19916;-84
2022/05/04 02:46:17;;;;;;;;;;;;;;;15.65;58.77;100756.34;5039354;28;20397;-82
2022/05/04 02:49:02;;;;;;;;;;;;;;;15.57;58.87;100760.03;5038857;28;19913;-84
2022/05/04 02:51:46;;;;;;;;;;;;;;;15.59;58.96;100757.75;5023359;28;20011;-82
2022/05/04 02:54:30;;;;;;;;;;;;;;;15.61;59.04;100761.72;5073889;28;19913;-84
2022/05/04 02:57:15;;;;;;;;;;;;;;;15.52;59.03;100763.00;5046539;28;19912;-84
2022/05/04 02:59:59;;;;;;;;;;;;;;;15.44;59.23;100764.69;5032844;28;19913;-84
2022/05/04 03:02:44;;;;;;;;;;;;;;;15.27;60.10;100757.56;5036626;28;20369;-85
2022/05/04 03:05:29;;;;;;;;;;;;;;;15.07;60.91;100758.50;5062882;28;19913;-85
2022/05/04 03:08:13;;;;;;;;;;;;;;;15.04;60.85;100758.38;5061409;28;19913;-81
2022/05/04 03:14:01;;;;;;;;;;;;;;;15.14;60.35;100757.91;5048193;28;19912;-83
2022/05/04 03:16:46;;;;;;;;;;;;;;;15.23;60.08;100753.94;5040219;28;19913;-82
2022/05/04 03:19:30;;;;;;;;;;;;;;;15.20;60.10;100757.34;5050759;28;19913;-85
2022/05/04 03:22:14;;;;;;;;;;;;;;;15.25;59.99;100759.84;5018365;28;20390;-86
2022/05/04 03:24:59;;;;;;;;;;;;;;;15.30;59.95;100765.09;5046321;28;19912;-85
2022/05/04 03:27:45;;;;;;;;;;;;;;;15.31;59.93;100769.41;5064617;28;20309;-84
2022/05/04 03:30:29;;;;;;;;;;;;;;;15.36;59.77;100763.69;5031544;28;19913;-84
2022/05/04 03:33:13;;;;;;;;;;;;;;;15.31;59.57;100765.88;5033013;28;19913;-85
2022/05/04 03:35:58;;;;;;;;;;;;;;;15.22;60.09;100768.75;5063194;28;20332;-85
2022/05/04 03:38:44;;;;;;;;;;;;;;;15.11;60.27;100764.88;5038500;28;19913;-85
2022/05/04 03:41:28;;;;;;;;;;;;;;;15.06;60.87;100759.66;5061045;28;19917;-85
2022/05/04 03:44:12;;;;;;;;;;;;;;;15.17;60.51;100762.72;5064940;28;19913;-83
2022/05/04 03:46:57;;;;;;;;;;;;;;;15.13;60.53;100770.03;5039783;28;19913;-84
2022/05/04 03:49:41;;;;;;;;;;;;;;;15.18;60.70;100770.59;5069321;28;19913;-86
2022/05/04 03:52:25;;;;;;;;;;;;;;;15.28;60.25;100770.13;5037219;28;19913;-86
2022/05/04 03:55:10;;;;;;;;;;;;;;;15.20;60.13;100765.56;5039348;28;19912;-86
2022/05/04 03:57:54;;;;;;;;;;;;;;;15.17;60.93;100773.66;5033172;28;20377;-84
2022/05/04 04:00:39;;;;;;;;;;;;;;;15.23;60.25;100777.78;5031821;28;20297;-85
2022/05/04 04:03:23;;;;;;;;;;;;;;;15.25;60.30;100775.47;5057600;28;19917;-85
2022/05/04 04:06:07;;;;;;;;;;;;;;;15.18;60.28;100770.59;5062295;28;19916;-86
2022/05/04 04:08:52;;;;;;;;;;;;;;;15.07;60.61;100766.72;5031990;28;19913;-85
2022/05/04 04:11:37;;;;;;;;;;;;;;;15.10;60.79;100767.97;5036934;28;19913;-83
2022/05/04 04:14:21;;;;;;;;;;;;;;;15.14;60.53;100775.16;5035548;28;19916;-84
2022/05/04 04:17:05;;;;;;;;;;;;;;;15.17;60.59;100777.22;5033950;28;19913;-84
2022/05/04 04:21:50;;;;;;;;;;;;;;;15.31;60.40;100787.78;5046716;28;19912;-84
2022/05/04 04:22:54;;;;;;;;;;;;;;;15.31;60.45;100791.34;5031149;28;19917;-84
2022/05/04 04:25:39;;;;;;;;;;;;;;;15.31;61.01;100793.28;5058893;28;19913;-83
2022/05/04 04:28:23;;;;;;;;;;;;;;;15.27;60.82;100795.91;5035653;28;19913;-84
2022/05/04 04:31:10;;;;;;;;;;;;;;;15.19;60.79;100799.56;5025812;28;19913;-85
2022/05/04 04:33:55;;;;;;;;;;;;;;;15.26;61.04;100797.06;5030527;28;19913;-83
2022/05/04 04:36:40;;;;;;;;;;;;;;;15.23;60.75;100805.97;5048752;28;19913;-85
2022/05/04 04:39:24;;;;;;;;;;;;;;;15.26;60.55;100813.50;5051962;28;19913;-85
2022/05/04 04:42:12;;;;;;;;;;;;;;;15.40;60.68;100813.94;5034453;28;19917;-85
2022/05/04 04:44:57;;;;;;;;;;;;;;;15.44;60.95;100816.00;5033451;28;19913;-83
2022/05/04 04:47:41;;;;;;;;;;;;;;;15.39;61.61;100814.25;5040260;28;19912;-85
2022/05/04 04:50:25;;;;;;;;;;;;;;;15.39;60.98;100815.06;5036751;28;19912;-84
2022/05/04 04:53:10;;;;;;;;;;;;;;;15.41;61.53;100821.00;5065089;28;19913;-85
2022/05/04 04:55:54;;;;;;;;;;;;;;;15.28;60.71;100824.91;5066058;28;19920;-84
2022/05/04 04:58:39;;;;;;;;;;;;;;;15.24;61.46;100826.72;5041020;28;19913;-82
2022/05/04 05:01:23;;;;;;;;;;;;;;;15.26;61.37;100827.19;5061175;28;19913;-84
2022/05/04 05:04:07;;;;;;;;;;;;;;;15.31;61.80;100835.19;5027979;28;19916;-84
2022/05/04 05:06:52;;;;;;;;;;;;;;;15.22;61.90;100834.50;5034825;28;19912;-83
2022/05/04 05:09:36;;;;;;;;;;;;;;;15.15;62.51;100837.00;5067402;28;19913;-83
2022/05/04 05:12:21;;;;;;;;;;;;;;;15.17;62.33;100833.94;5065854;28;19913;-83
2022/05/04 05:18:09;;;;;;;;;;;;;;;15.23;62.71;100838.06;5094072;23;19954;-89
2022/05/04 05:20:54;;;;;;;;;;;;;;;15.25;62.92;100846.72;5066527;28;19916;-90
2022/05/04 05:23:38;;;;;;;;;;;;;;;15.22;63.23;100845.47;5075919;28;19916;-89
2022/05/04 05:26:23;;;;;;;;;;;;;;;15.21;63.32;100852.09;5061272;28;19913;-91
2022/05/04 05:29:07;;;;;;;;;;;;;;;15.21;63.33;100860.31;5055395;28;19913;-91
2022/05/04 05:31:52;;;;;;;;;;;;;;;15.20;63.35;100855.97;5070061;28;19912;-88
2022/05/04 05:34:36;;;;;;;;;;;;;;;15.26;63.58;100857.34;5056116;28;19913;-88
2022/05/04 05:37:21;;;;;;;;;;;;;;;15.42;63.59;100865.66;5080598;28;19913;-85
2022/05/04 05:40:09;;;;;;;;;;;;;;;15.53;64.01;100869.56;5075195;28;19916;-88
2022/05/04 05:42:53;;;;;;;;;;;;;;;15.62;64.31;100867.50;5071150;28;19916;-91
2022/05/04 05:45:38;;;;;;;;;;;;;;;15.73;64.30;100876.84;5077185;28;19912;-90
2022/05/04 05:48:22;;;;;;;;;;;;;;;15.78;64.26;100875.81;5077899;28;19912;-88
2022/05/04 05:51:07;;;;;;;;;;;;;;;15.79;64.56;100878.22;5080331;28;19912;-88
2022/05/04 05:53:51;;;;;;;;;;;;;;;15.82;64.88;100876.72;5074107;28;20302;-90
2022/05/04 05:56:36;;;;;;;;;;;;;;;15.87;64.05;100881.94;5074838;28;19912;-90
2022/05/04 05:59:20;;;;;;;;;;;;;;;15.99;63.76;100884.66;5074684;28;19912;-90
2022/05/04 06:02:05;;;;;;;;;;;;;;;16.12;63.59;100880.72;5074281;28;19920;-88
2022/05/04 06:04:49;;;;;;;;;;;;;;;16.24;62.14;100888.13;5080226;28;20276;-88
2022/05/04 06:07:34;;;;;;;;;;;;;;;16.37;61.08;100891.59;5073304;28;19912;-88
2022/05/04 06:10:18;;;;;;;;;;;;;;;16.52;60.45;100883.41;5092701;28;19920;-91
2022/05/04 06:13:04;;;;;;;;;;;;;;;16.60;60.28;100885.25;5079395;28;19912;-91
2022/05/04 06:15:48;;;;;;;;;;;;;;;16.65;60.55;100886.94;5092302;28;19913;-84
2022/05/04 06:18:33;;;;;;;;;;;;;;;16.67;59.42;100884.63;5083176;28;19912;-90
2022/05/04 06:21:17;;;;;;;;;;;;;;;17.09;59.25;100882.97;5090293;28;19913;-86
2022/05/04 06:24:01;;;;;;;;;;;;;;;17.64;57.11;100888.63;5074334;28;19916;-84
2022/05/04 06:26:46;;;;;;;;;;;;;;;18.00;56.06;100890.19;5079295;28;19912;-84
2022/05/04 06:35:37;;;;;;;;;;;;;;;18.31;54.78;100892.81;5076282;28;19913;-83
2022/05/04 06:38:22;;;;;;;;;;;;;;;18.36;54.27;100907.09;5058621;28;19912;-84
2022/05/04 06:41:07;;;;;;;;;;;;;;;18.55;53.69;100906.31;5071238;28;20395;-84
2022/05/04 06:43:51;;;;;;;;;;;;;;;19.53;51.23;100911.97;5073180;28;19916;-83
2022/05/04 06:46:41;;;;;;;;;;;;;;;20.20;47.00;100912.13;5069145;28;19912;-82
2022/05/04 06:49:26;;;;;;;;;;;;;;;20.26;46.70;100918.13;5072763;28;19913;-82
2022/05/04 06:52:10;;;;;;;;;;;;;;;20.19;49.18;100916.06;5078705;28;19912;-82
2022/05/04 06:54:55;;;;;;;;;;;;;;;20.31;48.97;100915.84;5072835;28;19916;-82
2022/05/04 06:57:39;;;;;;;;;;;;;;;20.12;49.23;100915.16;5072791;28;19935;-81
2022/05/04 07:00:24;;;;;;;;;;;;;;;20.03;49.73;100912.69;5076396;28;19912;-83
2022/05/04 07:03:08;;;;;;;;;;;;;;;20.23;49.23;100914.13;5080223;28;19917;-84
2022/05/04 07:05:53;;;;;;;;;;;;;;;20.58;47.27;100913.78;5068860;28;19912;-84
2022/05/04 07:08:37;;;;;;;;;;;;;;;20.55;46.09;100913.75;5086439;28;19912;-86
2022/05/04 07:11:22;;;;;;;;;;;;;;;20.84;45.74;100918.41;5072787;28;19912;-85
2022/05/04 07:14:07;;;;;;;;;;;;;;;21.08;45.30;100914.31;5055690;28;19921;-84
2022/05/04 07:16:53;;;;;;;;;;;;;;;21.01;45.42;100909.50;5070986;28;19913;-86
2022/05/04 07:19:37;;;;;;;;;;;;;;;20.88;45.17;100916.47;5052070;28;19913;-85
2022/05/04 07:22:23;;;;;;;;;;;;;;;20.33;47.11;100912.69;5073226;28;19916;-85
2022/05/04 07:25:07;;;;;;;;;;;;;;;20.73;44.64;100912.75;5082806;28;19912;-87
2022/05/04 07:27:52;;;;;;;;;;;;;;;20.55;45.34;100920.06;5093520;28;19912;-87
2022/05/04 07:30:36;;;;;;;;;;;;;;;20.29;46.35;100920.13;5073476;28;19912;-87
2022/05/04 07:33:21;;;;;;;;;;;;;;;20.25;45.95;100911.81;5072254;28;20377;-86
2022/05/04 07:36:05;;;;;;;;;;;;;;;20.18;46.83;100913.66;5079431;28;19916;-88
2022/05/04 07:38:50;;;;;;;;;;;;;;;20.10;45.58;100898.19;5066144;28;19920;-87
2022/05/04 07:44:39;;;;;;;;;;;;;;;20.01;45.60;100893.72;5090486;28;20380;-87
2022/05/04 07:47:25;;;;;;;;;;;;;;;20.09;46.04;100900.16;5086670;28;19912;-86
2022/05/04 07:50:12;;;;;;;;;;;;;;;20.12;44.95;100895.84;5087891;28;19913;-87
2022/05/04 07:52:56;;;;;;;;;;;;;;;20.00;45.57;100907.94;5079027;28;20296;-86
2022/05/04 07:55:41;;;;;;;;;;;;;;;20.01;45.31;100904.00;5076347;28;19912;-87
2022/05/04 07:58:25;;;;;;;;;;;;;;;19.97;45.77;100903.13;5078645;28;19912;-86
2022/05/04 08:04:16;;;;;;;;;;;;;;;20.04;46.00;100903.25;5086998;28;19916;-86
2022/05/04 08:07:01;;;;;;;;;;;;;;;20.14;45.31;100902.59;5094016;28;19912;-87
2022/05/04 08:09:46;;;;;;;;;;;;;;;20.26;45.54;100916.16;5056802;28;19916;-85
2022/05/04 08:12:32;;;;;;;;;;;;;;;20.31;45.15;100915.06;5072180;28;19912;-86
2022/05/04 08:15:16;;;;;;;;;;;;;;;20.23;45.92;100911.38;5088819;28;19927;-86
2022/05/04 08:18:02;;;;;;;;;;;;;;;20.35;45.77;100916.69;5081878;28;20361;-87
2022/05/04 08:20:47;;;;;;;;;;;;;;;20.52;45.17;100920.03;5080310;28;20285;-87
2022/05/04 08:23:31;;;;;;;;;;;;;;;20.47;45.34;100927.47;5081587;28;19916;-87
2022/05/04 08:26:15;;;;;;;;;;;;;;;20.44;45.75;100925.47;5094864;28;19916;-86
2022/05/04 08:29:00;;;;;;;;;;;;;;;20.45;45.21;100931.81;5086121;28;19912;-87
2022/05/04 08:31:44;;;;;;;;;;;;;;;20.43;45.33;100931.38;5092632;28;20296;-86
2022/05/04 08:34:29;;;;;;;;;;;;;;;20.51;44.43;100926.75;5076403;28;19913;-87
2022/05/04 08:37:13;;;;;;;;;;;;;;;20.60;43.94;100932.75;5074777;28;19912;-87
2022/05/04 08:39:58;;;;;;;;;;;;;;;20.64;43.85;100925.28;5072789;28;19913;-86
2022/05/04 08:42:44;;;;;;;;;;;;;;;20.70;43.97;100934.84;5066037;28;19921;-87
2022/05/04 08:45:29;;;;;;;;;;;;;;;20.69;43.56;100928.53;5063804;28;20546;-86
2022/05/04 08:48:13;;;;;;;;;;;;;;;20.78;43.74;100931.78;5059368;28;19920;-84
2022/05/04 08:51:04;;;;;;;;;;;;;;;20.81;43.12;100935.75;5069161;28;19920;-82
2022/05/04 08:53:49;;;;;;;;;;;;;;;20.93;43.99;100939.03;5084619;28;19913;-83
2022/05/04 08:56:34;;;;;;;;;;;;;;;20.98;43.46;100939.88;5080588;28;20300;-83
2022/05/04 08:59:18;;;;;;;;;;;;;;;21.15;43.06;100942.03;5070416;28;19912;-83
2022/05/04 09:02:03;;;;;;;;;;;;;;;21.19;42.42;100938.13;5082243;28;19912;-85
2022/05/04 09:04:48;;;;;;;;;;;;;;;21.21;42.87;100935.00;5068846;28;19916;-86
2022/05/04 09:07:32;;;;;;;;;;;;;;;21.39;42.46;100935.91;5070926;28;19912;-85
2022/05/04 09:10:18;;;;;;;;;;;;;;;21.53;41.66;100949.09;5074675;28;19913;-86
2022/05/04 09:13:03;;;;;;;;;;;;;;;21.69;42.70;100941.28;5066503;28;20372;-86
2022/05/04 09:15:51;;;;;;;;;;;;;;;21.69;41.90;100925.47;5088596;28;19913;-84
2022/05/04 09:18:35;;;;;;;;;;;;;;;21.73;41.84;100931.84;5057055;28;19916;-85
2022/05/04 09:21:26;;;;;;;;;;;;;;;21.80;41.38;100925.53;5056126;28;20301;-87
2022/05/04 09:24:13;;;;;;;;;;;;;;;21.85;41.05;100932.69;5060784;28;19917;-87
2022/05/04 09:26:58;;;;;;;;;;;;;;;21.87;41.34;100931.13;5062053;28;20300;-87
2022/05/04 09:29:43;;;;;;;;;;;;;;;21.96;40.93;100928.03;5063246;28;19912;-89
2022/05/04 09:32:29;;;;;;;;;;;;;;;22.03;40.16;100926.13;5077971;28;19912;-87
2022/05/04 09:35:15;;;;;;;;;;;;;;;22.10;39.29;100928.13;5094891;28;19912;-87
2022/05/04 09:47:27;;;;;;;;;;;;;;;22.45;37.83;100917.19;5079800;28;19912;-85
2022/05/04 09:50:13;;;;;;;;;;;;;;;22.54;37.98;100925.94;5073364;28;19912;-85
2022/05/04 09:52:59;;;;;;;;;;;;;;;22.65;36.80;100920.44;5078756;28;19912;-84
2022/05/04 09:55:44;;;;;;;;;;;;;;;22.76;37.41;100918.47;5068512;28;19912;-85
2022/05/04 09:58:30;;;;;;;;;;;;;;;22.88;37.77;100912.56;5066559;28;19912;-85
2022/05/04 10:01:14;;;;;;;;;;;;;;;22.99;36.94;100915.38;5053840;28;19913;-84
2022/05/04 10:04:00;;;;;;;;;;;;;;;23.05;36.37;100913.00;5059892;28;19912;-84
2022/05/04 10:06:46;;;;;;;;;;;;;;;23.44;35.45;100913.78;5072457;28;20523;-85
2022/05/04 10:09:30;;;;;;;;;;;;;;;24.06;33.82;100914.09;5061838;28;20373;-83
2022/05/04 10:12:15;;;;;;;;;;;;;;;24.28;33.96;100910.06;5060047;28;20188;-83
2022/05/04 10:15:00;;;;;;;;;;;;;;;23.95;33.24;100906.97;5080148;28;19912;-81
2022/05/04 10:17:45;;;;;;;;;;;;;;;23.63;35.03;100910.63;5072017;28;20396;-84
2022/05/04 10:20:32;;;;;;;;;;;;;;;23.47;34.87;100903.91;5075511;28;19913;-88
2022/05/04 10:23:20;;;;;;;;;;;;;;;23.43;34.39;100896.34;5069134;28;20335;-90
2022/05/04 10:26:05;;;;;;;;;;;;;;;23.43;32.12;100898.31;5070028;28;19912;-88
2022/05/04 10:31:56;;;;;;;;;;;;;;;23.32;32.35;100903.06;5088914;28;20320;-88
2022/05/04 10:34:42;;;;;;;;;;;;;;;23.36;33.76;100903.88;5076002;28;19912;-88
2022/05/04 10:37:27;;;;;;;;;;;;;;;23.37;34.26;100888.78;5061834;28;20296;-88
2022/05/04 10:40:11;;;;;;;;;;;;;;;23.36;34.63;100892.78;5069168;28;19913;-88
2022/05/04 10:42:57;;;;;;;;;;;;;;;23.33;35.11;100888.00;5053095;28;19916;-89
2022/05/04 10:45:43;;;;;;;;;;;;;;;23.39;34.88;100890.00;5073615;28;19913;-88
2022/05/04 10:48:28;;;;;;;;;;;;;;;23.35;34.18;100888.41;5056740;28;19912;-87
2022/05/04 10:51:21;;;;;;;;;;;;;;;23.44;34.69;100883.25;5071502;28;19912;-88
2022/05/04 10:54:09;;;;;;;;;;;;;;;23.50;33.17;100883.66;5079809;28;20292;-88
2022/05/04 10:56:54;;;;;;;;;;;;;;;23.56;32.34;100874.56;5066114;28;19912;-88
2022/05/04 10:59:38;;;;;;;;;;;;;;;23.66;30.43;100879.28;5072744;28;19913;-88
2022/05/04 11:02:23;;;;;;;;;;;;;;;23.68;30.46;100879.66;5074358;28;20368;-88
2022/05/04 11:05:12;;;;;;;;;;;;;;;23.74;29.82;100878.06;5089763;28;19916;-88
2022/05/04 11:07:57;;;;;;;;;;;;;;;23.77;31.28;100877.25;5075787;28;19920;-87
2022/05/04 11:10:43;;;;;;;;;;;;;;;23.69;28.00;100875.69;5077975;28;19912;-89
2022/05/04 11:13:28;;;;;;;;;;;;;;;23.59;29.40;100878.50;5070425;28;19916;-88
2022/05/04 11:16:13;;;;;;;;;;;;;;;23.53;30.26;100874.53;5084806;28;20304;-88
2022/05/04 11:19:01;;;;;;;;;;;;;;;23.63;30.18;100880.06;5076685;28;19917;-87
2022/05/04 11:21:45;;;;;;;;;;;;;;;23.67;31.40;100880.84;5074773;28;20296;-87
2022/05/04 11:24:30;;;;;;;;;;;;;;;23.69;30.21;100864.59;5070969;28;19916;-87
2022/05/04 11:27:17;;;;;;;;;;;;;;;23.74;30.40;100880.84;5069977;28;19913;-86
2022/05/04 11:30:02;;;;;;;;;;;;;;;23.87;30.75;100879.22;5067282;28;19912;-87
2022/05/04 11:32:50;;;;;;;;;;;;;;;24.01;28.13;100877.59;5101398;22;19920;-77
2022/05/04 11:35:35;;;;;;;;;;;;;;;24.13;27.10;100866.81;5092513;28;20310;-76
2022/05/04 11:38:20;;;;;;;;;;;;;;;24.14;27.85;100870.38;5098410;28;19915;-76
2022/05/04 11:41:04;;;;;;;;;;;;;;;24.12;28.52;100875.56;5092704;28;19912;-76
2022/05/04 11:43:50;;;;;;;;;;;;;;;24.11;28.71;100869.22;5098275;28;20374;-75
2022/05/04 11:46:34;;;;;;;;;;;;;;;24.03;28.81;100861.28;5073387;28;20291;-76
2022/05/04 11:49:20;;;;;;;;;;;;;;;24.12;28.54;100862.47;5072340;28;20117;-75
2022/05/04 11:52:05;;;;;;;;;;;;;;;24.19;29.03;100862.44;5055949;28;19912;-75
2022/05/04 11:54:49;;;;;;;;;;;;;;;24.19;29.69;100861.66;5074940;28;20339;-76
2022/05/04 11:57:41;;;;;;;;;;;;;;;24.25;28.56;100848.94;5071806;28;19911;-75
2022/05/04 12:00:26;;;;;;;;;;;;;;;24.26;28.84;100848.53;5074173;28;19913;-75
2022/05/04 12:03:11;;;;;;;;;;;;;;;24.28;28.27;100854.47;5062656;28;19920;-75
2022/05/04 12:05:56;;;;;;;;;;;;;;;24.31;27.17;100841.75;5073811;28;19913;-75
2022/05/04 12:08:41;;;;;;;;;;;;;;;24.41;28.81;100845.66;5063765;28;19912;-75
2022/05/04 12:11:28;;;;;;;;;;;;;;;24.45;28.69;100841.66;5056487;28;19913;-75
2022/05/04 12:14:15;;;;;;;;;;;;;;;24.47;27.72;100842.06;5056399;28;19912;-76
2022/05/04 12:16:59;;;;;;;;;;;;;;;24.42;28.40;100838.91;5076851;28;19912;-75
2022/05/04 12:19:45;;;;;;;;;;;;;;;24.40;28.72;100838.50;5077790;28;20279;-74
2022/05/04 12:22:29;;;;;;;;;;;;;;;24.35;28.72;100834.19;5096691;28;20279;-75
2022/05/04 12:25:14;;;;;;;;;;;;;;;24.46;28.96;100837.69;5096462;28;20291;-75
2022/05/04 12:27:59;;;;;;;;;;;;;;;24.57;29.16;100832.84;5084644;28;19913;-75
2022/05/04 12:33:50;;;;;;;;;;;;;;;24.54;28.95;100819.75;5075894;28;19912;-75
2022/05/04 12:36:35;;;;;;;;;;;;;;;24.70;28.40;100817.25;5055771;28;19913;-75
2022/05/04 12:39:21;;;;;;;;;;;;;;;24.67;28.13;100822.84;5070421;28;19912;-75
2022/05/04 12:42:06;;;;;;;;;;;;;;;24.69;27.95;100824.00;5075229;28;19912;-75
2022/05/04 12:44:52;;;;;;;;;;;;;;;24.76;27.22;100822.38;5075385;28;19920;-75
2022/05/04 12:47:37;;;;;;;;;;;;;;;24.81;27.36;100814.41;5081144;28;20379;-75
2022/05/04 12:50:22;;;;;;;;;;;;;;;24.85;27.65;100817.94;5068985;28;20202;-75
2022/05/04 12:53:06;;;;;;;;;;;;;;;25.00;27.95;100810.28;5055162;28;20291;-76
2022/05/04 12:58:54;;;;;;;;;;;;;;;25.00;28.38;100804.72;5058466;28;19912;-75
2022/05/04 13:01:39;;;;;;;;;;;;;;;24.94;28.02;100803.59;5086846;28;20370;-75
2022/05/04 13:04:23;;;;;;;;;;;;;;;25.08;28.02;100801.47;5086754;28;19915;-75
2022/05/04 13:07:08;;;;;;;;;;;;;;;25.12;27.84;100798.66;5054978;28;19913;-75
2022/05/04 13:09:54;;;;;;;;;;;;;;;25.09;27.62;100797.47;5074113;28;19912;-75
2022/05/04 13:12:38;;;;;;;;;;;;;;;25.17;26.40;100803.78;5080605;28;19912;-76
2022/05/04 13:15:23;;;;;;;;;;;;;;;25.12;26.19;100801.44;5094237;28;19912;-76
2022/05/04 13:18:08;;;;;;;;;;;;;;;25.01;26.40;100803.53;5067479;28;19912;-75
2022/05/04 13:20:53;;;;;;;;;;;;;;;25.04;27.44;100795.13;5083479;28;19912;-75
2022/05/04 13:23:38;;;;;;;;;;;;;;;25.03;26.80;100798.34;5094123;28;19916;-75
2022/05/04 13:26:22;;;;;;;;;;;;;;;24.83;26.63;100789.75;5089578;28;20390;-75
2022/05/04 13:29:07;;;;;;;;;;;;;;;24.89;26.77;100788.13;5086402;28;19912;-75
2022/05/04 13:31:51;;;;;;;;;;;;;;;24.68;26.25;100783.50;5094682;28;19912;-75
2022/05/04 13:34:36;;;;;;;;;;;;;;;24.47;26.48;100786.44;5086332;28;20386;-75
2022/05/04 13:37:22;;;;;;;;;;;;;;;24.53;26.72;100784.03;5073914;28;20382;-75
2022/05/04 13:40:06;;;;;;;;;;;;;;;24.52;27.06;100791.59;5074180;28;19912;-75
2022/05/04 13:42:51;;;;;;;;;;;;;;;24.46;26.52;100797.97;5062814;28;20379;-76
2022/05/04 13:45:36;;;;;;;;;;;;;;;24.47;26.28;100794.00;5082388;28;19916;-76
2022/05/04 13:48:20;;;;;;;;;;;;;;;24.42;26.72;100792.44;5074259;28;19916;-75
2022/05/04 13:54:08;;;;;;;;;;;;;;;24.12;27.64;100787.44;5094438;28;19911;-76
2022/05/04 13:56:53;;;;;;;;;;;;;;;24.09;27.42;100790.22;5095236;28;19912;-75
2022/05/04 13:59:38;;;;;;;;;;;;;;;24.01;27.80;100788.69;5077163;28;20371;-76
2022/05/04 14:02:22;;;;;;;;;;;;;;;23.95;27.38;100787.53;5074052;28;19912;-74
2022/05/04 14:05:07;;;;;;;;;;;;;;;23.92;27.09;100791.13;5079689;28;19916;-75
2022/05/04 14:07:52;;;;;;;;;;;;;;;23.90;27.72;100790.72;5073794;28;19913;-75
2022/05/04 14:10:43;;;;;;;;;;;;;;;23.80;27.59;100790.38;5079854;28;19913;-75
2022/05/04 14:13:27;;;;;;;;;;;;;;;23.81;28.22;100791.97;5073487;28;19920;-75
2022/05/04 14:16:13;;;;;;;;;;;;;;;23.69;28.57;100784.06;5091344;28;19912;-75
2022/05/04 14:18:58;;;;;;;;;;;;;;;23.67;27.89;100785.66;5073632;28;19912;-75
2022/05/04 14:21:42;;;;;;;;;;;;;;;23.64;28.32;100781.69;5073771;28;20294;-75
2022/05/04 14:24:27;;;;;;;;;;;;;;;23.59;29.45;100793.22;5073428;28;19916;-75
2022/05/04 14:27:11;;;;;;;;;;;;;;;23.65;29.57;100793.59;5073469;28;20375;-75
2022/05/04 14:29:57;;;;;;;;;;;;;;;23.56;29.69;100796.81;5094671;28;19919;-76
2022/05/04 14:32:42;;;;;;;;;;;;;;;23.55;29.09;100786.88;5097753;28;19912;-75
2022/05/04 14:35:27;;;;;;;;;;;;;;;23.44;29.83;100786.88;5093694;28;19912;-75
2022/05/04 14:38:12;;;;;;;;;;;;;;;23.39;30.83;100792.06;5093667;28;19908;-75
2022/05/04 14:40:56;;;;;;;;;;;;;;;23.35;30.86;100796.84;5093469;28;19912;-76
2022/05/04 14:43:41;;;;;;;;;;;;;;;23.25;31.63;100794.88;5107825;28;20379;-75
2022/05/04 14:46:26;;;;;;;;;;;;;;;23.23;31.70;100792.47;5095486;28;19912;-75
2022/05/04 14:49:10;;;;;;;;;;;;;;;23.14;30.65;100792.09;5096770;28;19916;-75
2022/05/04 14:51:55;;;;;;;;;;;;;;;23.07;30.61;100791.31;5089462;28;19912;-75